sensor_id;sensor_type;location;lat;lon;timestamp;P1;durP1;ratioP1;P2;durP2;ratioP2
65045;SDS011;54657;52.022;5.534;2022-09-14T00:01:10;5.38;;;1.40;;
65045;SDS011;54657;52.022;5.534;2022-09-14T00:03:40;4.22;;;1.48;;
65045;SDS011;54657;52.022;5.534;2022-09-14T00:06:07;4.63;;;1.88;;
65045;SDS011;54657;52.022;5.534;2022-09-14T00:08:37;3.30;;;1.58;;
65045;SDS011;54657;52.022;5.534;2022-09-14T00:11:05;3.75;;;1.35;;
65045;SDS011;54657;52.022;5.534;2022-09-14T00:13:32;3.78;;;1.77;;
65045;SDS011;54657;52.022;5.534;2022-09-14T00:16:05;4.53;;;1.92;;
65045;SDS011;54657;52.022;5.534;2022-09-14T00:18:40;3.22;;;1.70;;
65045;SDS011;54657;52.022;5.534;2022-09-14T00:21:10;6.90;;;1.92;;
65045;SDS011;54657;52.022;5.534;2022-09-14T00:23:37;2.97;;;1.42;;
65045;SDS011;54657;52.022;5.534;2022-09-14T00:26:04;4.15;;;1.73;;
65045;SDS011;54657;52.022;5.534;2022-09-14T00:28:44;5.30;;;1.90;;
65045;SDS011;54657;52.022;5.534;2022-09-14T00:31:11;6.03;;;2.00;;
65045;SDS011;54657;52.022;5.534;2022-09-14T00:33:37;10.02;;;1.95;;
65045;SDS011;54657;52.022;5.534;2022-09-14T00:36:08;6.45;;;2.03;;
65045;SDS011;54657;52.022;5.534;2022-09-14T00:38:38;3.20;;;1.60;;
65045;SDS011;54657;52.022;5.534;2022-09-14T00:41:07;5.10;;;1.95;;
65045;SDS011;54657;52.022;5.534;2022-09-14T00:46:20;4.93;;;1.83;;
65045;SDS011;54657;52.022;5.534;2022-09-14T00:48:45;5.55;;;1.65;;
65045;SDS011;54657;52.022;5.534;2022-09-14T00:51:11;3.15;;;1.90;;
65045;SDS011;54657;52.022;5.534;2022-09-14T00:53:38;4.10;;;1.90;;
65045;SDS011;54657;52.022;5.534;2022-09-14T00:56:04;5.15;;;2.20;;
65045;SDS011;54657;52.022;5.534;2022-09-14T00:58:30;6.07;;;1.88;;
65045;SDS011;54657;52.022;5.534;2022-09-14T01:00:55;7.97;;;1.98;;
65045;SDS011;54657;52.022;5.534;2022-09-14T01:03:22;5.00;;;2.08;;
65045;SDS011;54657;52.022;5.534;2022-09-14T01:06:00;6.45;;;2.08;;
65045;SDS011;54657;52.022;5.534;2022-09-14T01:13:54;6.22;;;2.05;;
65045;SDS011;54657;52.022;5.534;2022-09-14T01:16:36;4.15;;;2.20;;
65045;SDS011;54657;52.022;5.534;2022-09-14T01:22:08;6.65;;;2.08;;
65045;SDS011;54657;52.022;5.534;2022-09-14T01:24:44;5.05;;;2.40;;
65045;SDS011;54657;52.022;5.534;2022-09-14T01:27:25;5.38;;;2.13;;
65045;SDS011;54657;52.022;5.534;2022-09-14T01:30:07;6.20;;;2.17;;
65045;SDS011;54657;52.022;5.534;2022-09-14T01:32:43;6.53;;;2.00;;
65045;SDS011;54657;52.022;5.534;2022-09-14T01:35:39;5.70;;;1.98;;
65045;SDS011;54657;52.022;5.534;2022-09-14T01:41:00;8.63;;;2.53;;
65045;SDS011;54657;52.022;5.534;2022-09-14T01:43:30;3.95;;;2.05;;
65045;SDS011;54657;52.022;5.534;2022-09-14T01:46:17;4.57;;;1.90;;
65045;SDS011;54657;52.022;5.534;2022-09-14T01:48:55;9.13;;;2.10;;
65045;SDS011;54657;52.022;5.534;2022-09-14T01:51:25;6.25;;;2.55;;
65045;SDS011;54657;52.022;5.534;2022-09-14T01:54:04;7.00;;;2.00;;
65045;SDS011;54657;52.022;5.534;2022-09-14T01:56:35;5.15;;;2.25;;
65045;SDS011;54657;52.022;5.534;2022-09-14T01:59:09;4.13;;;2.10;;
65045;SDS011;54657;52.022;5.534;2022-09-14T02:01:42;4.10;;;2.00;;
65045;SDS011;54657;52.022;5.534;2022-09-14T02:04:15;7.82;;;2.30;;
65045;SDS011;54657;52.022;5.534;2022-09-14T02:06:46;8.45;;;2.40;;
65045;SDS011;54657;52.022;5.534;2022-09-14T02:09:14;3.40;;;2.13;;
65045;SDS011;54657;52.022;5.534;2022-09-14T02:11:42;8.15;;;2.65;;
65045;SDS011;54657;52.022;5.534;2022-09-14T02:14:09;6.18;;;2.20;;
65045;SDS011;54657;52.022;5.534;2022-09-14T02:16:34;8.27;;;2.28;;
65045;SDS011;54657;52.022;5.534;2022-09-14T02:19:00;9.85;;;2.40;;
65045;SDS011;54657;52.022;5.534;2022-09-14T02:21:27;4.13;;;2.00;;
65045;SDS011;54657;52.022;5.534;2022-09-14T02:23:55;6.15;;;2.20;;
65045;SDS011;54657;52.022;5.534;2022-09-14T02:26:22;4.90;;;2.17;;
65045;SDS011;54657;52.022;5.534;2022-09-14T02:28:49;5.05;;;1.92;;
65045;SDS011;54657;52.022;5.534;2022-09-14T02:32:03;6.60;;;2.10;;
65045;SDS011;54657;52.022;5.534;2022-09-14T02:37:38;2.92;;;1.90;;
65045;SDS011;54657;52.022;5.534;2022-09-14T02:45:34;8.88;;;2.60;;
65045;SDS011;54657;52.022;5.534;2022-09-14T02:54:05;4.60;;;2.30;;
65045;SDS011;54657;52.022;5.534;2022-09-14T02:56:38;6.60;;;2.33;;
65045;SDS011;54657;52.022;5.534;2022-09-14T02:59:04;5.50;;;2.42;;
65045;SDS011;54657;52.022;5.534;2022-09-14T03:01:30;5.65;;;2.25;;
65045;SDS011;54657;52.022;5.534;2022-09-14T03:03:56;5.55;;;2.33;;
65045;SDS011;54657;52.022;5.534;2022-09-14T03:06:21;3.22;;;1.98;;
65045;SDS011;54657;52.022;5.534;2022-09-14T03:08:47;4.70;;;2.17;;
65045;SDS011;54657;52.022;5.534;2022-09-14T03:11:14;4.88;;;2.78;;
65045;SDS011;54657;52.022;5.534;2022-09-14T03:13:39;5.30;;;2.65;;
65045;SDS011;54657;52.022;5.534;2022-09-14T03:16:06;7.20;;;2.58;;
65045;SDS011;54657;52.022;5.534;2022-09-14T03:18:33;7.00;;;2.30;;
65045;SDS011;54657;52.022;5.534;2022-09-14T03:21:06;5.18;;;2.63;;
65045;SDS011;54657;52.022;5.534;2022-09-14T03:23:43;6.78;;;2.47;;
65045;SDS011;54657;52.022;5.534;2022-09-14T03:26:13;5.13;;;1.90;;
65045;SDS011;54657;52.022;5.534;2022-09-14T03:28:41;5.32;;;2.20;;
65045;SDS011;54657;52.022;5.534;2022-09-14T03:31:07;4.15;;;1.52;;
65045;SDS011;54657;52.022;5.534;2022-09-14T03:33:34;4.82;;;2.05;;
65045;SDS011;54657;52.022;5.534;2022-09-14T03:36:08;4.18;;;1.75;;
65045;SDS011;54657;52.022;5.534;2022-09-14T03:38:35;5.20;;;2.30;;
65045;SDS011;54657;52.022;5.534;2022-09-14T03:41:06;8.43;;;2.08;;
65045;SDS011;54657;52.022;5.534;2022-09-14T03:43:32;4.50;;;1.80;;
65045;SDS011;54657;52.022;5.534;2022-09-14T03:46:03;6.57;;;1.95;;
65045;SDS011;54657;52.022;5.534;2022-09-14T03:48:29;3.42;;;1.58;;
65045;SDS011;54657;52.022;5.534;2022-09-14T03:50:55;3.88;;;1.77;;
65045;SDS011;54657;52.022;5.534;2022-09-14T03:53:25;7.18;;;1.95;;
65045;SDS011;54657;52.022;5.534;2022-09-14T03:55:50;4.40;;;1.70;;
65045;SDS011;54657;52.022;5.534;2022-09-14T03:58:16;3.08;;;1.50;;
65045;SDS011;54657;52.022;5.534;2022-09-14T04:00:41;6.47;;;1.65;;
65045;SDS011;54657;52.022;5.534;2022-09-14T04:03:07;5.22;;;1.73;;
65045;SDS011;54657;52.022;5.534;2022-09-14T04:05:32;3.25;;;1.70;;
65045;SDS011;54657;52.022;5.534;2022-09-14T04:07:58;4.40;;;1.70;;
65045;SDS011;54657;52.022;5.534;2022-09-14T04:10:24;5.60;;;1.70;;
65045;SDS011;54657;52.022;5.534;2022-09-14T04:12:49;3.80;;;1.40;;
65045;SDS011;54657;52.022;5.534;2022-09-14T04:15:15;8.80;;;1.67;;
65045;SDS011;54657;52.022;5.534;2022-09-14T04:17:40;2.65;;;1.50;;
65045;SDS011;54657;52.022;5.534;2022-09-14T04:20:06;4.38;;;1.73;;
65045;SDS011;54657;52.022;5.534;2022-09-14T04:22:32;3.47;;;1.50;;
65045;SDS011;54657;52.022;5.534;2022-09-14T04:24:58;4.25;;;1.52;;
65045;SDS011;54657;52.022;5.534;2022-09-14T04:27:23;4.70;;;1.40;;
65045;SDS011;54657;52.022;5.534;2022-09-14T04:29:49;6.35;;;2.20;;
65045;SDS011;54657;52.022;5.534;2022-09-14T04:32:15;5.70;;;2.00;;
65045;SDS011;54657;52.022;5.534;2022-09-14T04:34:41;2.78;;;1.40;;
65045;SDS011;54657;52.022;5.534;2022-09-14T04:37:07;5.20;;;1.85;;
65045;SDS011;54657;52.022;5.534;2022-09-14T04:39:32;5.88;;;1.70;;
65045;SDS011;54657;52.022;5.534;2022-09-14T04:41:58;3.38;;;1.35;;
65045;SDS011;54657;52.022;5.534;2022-09-14T04:44:23;3.45;;;1.52;;
65045;SDS011;54657;52.022;5.534;2022-09-14T04:46:49;3.65;;;1.60;;
65045;SDS011;54657;52.022;5.534;2022-09-14T04:49:15;2.72;;;1.50;;
65045;SDS011;54657;52.022;5.534;2022-09-14T04:51:42;3.78;;;1.48;;
65045;SDS011;54657;52.022;5.534;2022-09-14T04:54:11;2.90;;;1.17;;
65045;SDS011;54657;52.022;5.534;2022-09-14T04:56:39;3.08;;;1.30;;
65045;SDS011;54657;52.022;5.534;2022-09-14T04:59:05;4.78;;;1.35;;
65045;SDS011;54657;52.022;5.534;2022-09-14T05:01:32;2.25;;;1.30;;
65045;SDS011;54657;52.022;5.534;2022-09-14T05:04:00;2.97;;;1.55;;
65045;SDS011;54657;52.022;5.534;2022-09-14T05:06:30;4.05;;;1.35;;
65045;SDS011;54657;52.022;5.534;2022-09-14T05:08:57;5.68;;;1.58;;
65045;SDS011;54657;52.022;5.534;2022-09-14T05:11:25;4.10;;;1.30;;
65045;SDS011;54657;52.022;5.534;2022-09-14T05:13:54;3.45;;;1.10;;
65045;SDS011;54657;52.022;5.534;2022-09-14T05:16:27;7.75;;;1.98;;
65045;SDS011;54657;52.022;5.534;2022-09-14T05:18:55;3.20;;;1.58;;
65045;SDS011;54657;52.022;5.534;2022-09-14T05:21:25;7.28;;;1.40;;
65045;SDS011;54657;52.022;5.534;2022-09-14T05:23:54;4.88;;;1.70;;
65045;SDS011;54657;52.022;5.534;2022-09-14T05:26:22;4.43;;;1.58;;
65045;SDS011;54657;52.022;5.534;2022-09-14T05:28:49;3.35;;;1.42;;
65045;SDS011;54657;52.022;5.534;2022-09-14T05:31:16;7.28;;;1.88;;
65045;SDS011;54657;52.022;5.534;2022-09-14T05:33:42;5.32;;;1.67;;
65045;SDS011;54657;52.022;5.534;2022-09-14T05:36:08;7.00;;;1.80;;
65045;SDS011;54657;52.022;5.534;2022-09-14T05:38:35;2.47;;;1.33;;
65045;SDS011;54657;52.022;5.534;2022-09-14T05:41:02;9.15;;;1.88;;
65045;SDS011;54657;52.022;5.534;2022-09-14T05:43:28;4.70;;;1.50;;
65045;SDS011;54657;52.022;5.534;2022-09-14T05:45:55;5.78;;;1.60;;
65045;SDS011;54657;52.022;5.534;2022-09-14T05:48:25;3.50;;;1.60;;
65045;SDS011;54657;52.022;5.534;2022-09-14T05:50:56;5.07;;;1.73;;
65045;SDS011;54657;52.022;5.534;2022-09-14T05:53:23;2.60;;;1.63;;
65045;SDS011;54657;52.022;5.534;2022-09-14T05:55:57;3.80;;;1.80;;
65045;SDS011;54657;52.022;5.534;2022-09-14T05:58:25;3.90;;;1.50;;
65045;SDS011;54657;52.022;5.534;2022-09-14T06:00:50;3.88;;;1.88;;
65045;SDS011;54657;52.022;5.534;2022-09-14T06:03:16;4.25;;;1.85;;
65045;SDS011;54657;52.022;5.534;2022-09-14T06:05:41;5.20;;;1.80;;
65045;SDS011;54657;52.022;5.534;2022-09-14T06:08:07;3.20;;;1.80;;
65045;SDS011;54657;52.022;5.534;2022-09-14T06:10:32;4.55;;;2.00;;
65045;SDS011;54657;52.022;5.534;2022-09-14T06:12:58;4.40;;;1.90;;
65045;SDS011;54657;52.022;5.534;2022-09-14T06:15:24;3.80;;;2.17;;
65045;SDS011;54657;52.022;5.534;2022-09-14T06:17:49;3.97;;;1.90;;
65045;SDS011;54657;52.022;5.534;2022-09-14T06:20:15;4.72;;;1.98;;
65045;SDS011;54657;52.022;5.534;2022-09-14T06:22:42;5.45;;;2.08;;
65045;SDS011;54657;52.022;5.534;2022-09-14T06:25:08;4.15;;;1.83;;
65045;SDS011;54657;52.022;5.534;2022-09-14T06:27:35;6.40;;;1.90;;
65045;SDS011;54657;52.022;5.534;2022-09-14T06:30:01;5.30;;;2.30;;
65045;SDS011;54657;52.022;5.534;2022-09-14T06:32:28;5.80;;;2.03;;
65045;SDS011;54657;52.022;5.534;2022-09-14T06:34:54;7.47;;;1.65;;
65045;SDS011;54657;52.022;5.534;2022-09-14T06:37:20;6.30;;;2.08;;
65045;SDS011;54657;52.022;5.534;2022-09-14T06:39:46;4.32;;;1.70;;
65045;SDS011;54657;52.022;5.534;2022-09-14T06:42:11;4.38;;;1.90;;
65045;SDS011;54657;52.022;5.534;2022-09-14T06:44:37;6.78;;;2.15;;
65045;SDS011;54657;52.022;5.534;2022-09-14T06:47:02;4.22;;;2.10;;
65045;SDS011;54657;52.022;5.534;2022-09-14T06:49:28;4.10;;;2.17;;
65045;SDS011;54657;52.022;5.534;2022-09-14T06:51:54;5.90;;;1.95;;
65045;SDS011;54657;52.022;5.534;2022-09-14T06:54:21;4.53;;;1.75;;
65045;SDS011;54657;52.022;5.534;2022-09-14T06:56:47;3.85;;;1.60;;
65045;SDS011;54657;52.022;5.534;2022-09-14T06:59:13;4.43;;;1.55;;
65045;SDS011;54657;52.022;5.534;2022-09-14T07:01:40;4.43;;;3.05;;
65045;SDS011;54657;52.022;5.534;2022-09-14T07:04:06;8.45;;;2.92;;
65045;SDS011;54657;52.022;5.534;2022-09-14T07:06:37;4.65;;;2.03;;
65045;SDS011;54657;52.022;5.534;2022-09-14T07:09:04;3.95;;;1.70;;
65045;SDS011;54657;52.022;5.534;2022-09-14T07:11:30;2.97;;;1.45;;
65045;SDS011;54657;52.022;5.534;2022-09-14T07:13:56;3.28;;;1.60;;
65045;SDS011;54657;52.022;5.534;2022-09-14T07:16:23;5.28;;;1.27;;
65045;SDS011;54657;52.022;5.534;2022-09-14T07:18:53;5.30;;;1.25;;
65045;SDS011;54657;52.022;5.534;2022-09-14T07:21:19;4.18;;;1.60;;
65045;SDS011;54657;52.022;5.534;2022-09-14T07:23:46;4.63;;;1.33;;
65045;SDS011;54657;52.022;5.534;2022-09-14T07:26:22;5.15;;;1.23;;
65045;SDS011;54657;52.022;5.534;2022-09-14T07:28:50;4.75;;;1.98;;
65045;SDS011;54657;52.022;5.534;2022-09-14T07:31:20;3.30;;;1.30;;
65045;SDS011;54657;52.022;5.534;2022-09-14T07:33:54;4.10;;;1.67;;
65045;SDS011;54657;52.022;5.534;2022-09-14T07:36:21;5.65;;;1.45;;
65045;SDS011;54657;52.022;5.534;2022-09-14T07:38:48;4.75;;;1.35;;
65045;SDS011;54657;52.022;5.534;2022-09-14T07:41:14;5.28;;;1.83;;
65045;SDS011;54657;52.022;5.534;2022-09-14T07:43:40;9.07;;;2.72;;
65045;SDS011;54657;52.022;5.534;2022-09-14T07:46:05;5.63;;;2.85;;
65045;SDS011;54657;52.022;5.534;2022-09-14T07:48:32;4.10;;;2.17;;
65045;SDS011;54657;52.022;5.534;2022-09-14T07:51:00;6.60;;;2.50;;
65045;SDS011;54657;52.022;5.534;2022-09-14T07:53:30;5.78;;;1.80;;
65045;SDS011;54657;52.022;5.534;2022-09-14T07:55:59;2.88;;;1.40;;
65045;SDS011;54657;52.022;5.534;2022-09-14T07:58:26;2.40;;;1.33;;
65045;SDS011;54657;52.022;5.534;2022-09-14T08:00:57;3.65;;;1.30;;
65045;SDS011;54657;52.022;5.534;2022-09-14T08:03:24;2.58;;;0.98;;
65045;SDS011;54657;52.022;5.534;2022-09-14T08:05:57;4.72;;;1.20;;
65045;SDS011;54657;52.022;5.534;2022-09-14T08:08:26;3.33;;;1.20;;
65045;SDS011;54657;52.022;5.534;2022-09-14T08:11:06;6.28;;;1.40;;
65045;SDS011;54657;52.022;5.534;2022-09-14T08:13:35;5.65;;;1.20;;
65045;SDS011;54657;52.022;5.534;2022-09-14T08:16:02;3.15;;;1.23;;
65045;SDS011;54657;52.022;5.534;2022-09-14T08:18:29;5.13;;;1.50;;
65045;SDS011;54657;52.022;5.534;2022-09-14T08:20:55;7.50;;;1.80;;
65045;SDS011;54657;52.022;5.534;2022-09-14T08:23:21;5.05;;;1.10;;
65045;SDS011;54657;52.022;5.534;2022-09-14T08:25:47;4.15;;;1.30;;
65045;SDS011;54657;52.022;5.534;2022-09-14T08:28:12;5.85;;;1.40;;
65045;SDS011;54657;52.022;5.534;2022-09-14T08:30:38;3.78;;;1.20;;
65045;SDS011;54657;52.022;5.534;2022-09-14T08:33:04;5.10;;;1.27;;
65045;SDS011;54657;52.022;5.534;2022-09-14T08:35:30;4.85;;;1.25;;
65045;SDS011;54657;52.022;5.534;2022-09-14T08:37:55;5.97;;;1.20;;
65045;SDS011;54657;52.022;5.534;2022-09-14T08:40:21;3.83;;;1.25;;
65045;SDS011;54657;52.022;5.534;2022-09-14T08:42:46;2.60;;;1.17;;
65045;SDS011;54657;52.022;5.534;2022-09-14T08:45:14;2.63;;;1.13;;
65045;SDS011;54657;52.022;5.534;2022-09-14T08:47:40;3.63;;;1.23;;
65045;SDS011;54657;52.022;5.534;2022-09-14T08:57:55;5.20;;;1.60;;
65045;SDS011;54657;52.022;5.534;2022-09-14T09:00:31;4.22;;;2.17;;
65045;SDS011;54657;52.022;5.534;2022-09-14T09:06:15;5.38;;;2.47;;
65045;SDS011;54657;52.022;5.534;2022-09-14T09:08:51;5.53;;;2.30;;
65045;SDS011;54657;52.022;5.534;2022-09-14T09:11:41;5.60;;;2.50;;
65045;SDS011;54657;52.022;5.534;2022-09-14T09:14:24;6.75;;;2.40;;
65045;SDS011;54657;52.022;5.534;2022-09-14T09:16:58;5.72;;;2.28;;
65045;SDS011;54657;52.022;5.534;2022-09-14T09:19:36;3.85;;;2.17;;
65045;SDS011;54657;52.022;5.534;2022-09-14T09:22:05;5.15;;;2.15;;
65045;SDS011;54657;52.022;5.534;2022-09-14T09:27:09;6.40;;;2.03;;
65045;SDS011;54657;52.022;5.534;2022-09-14T09:29:35;5.03;;;1.90;;
65045;SDS011;54657;52.022;5.534;2022-09-14T09:32:02;2.60;;;1.40;;
65045;SDS011;54657;52.022;5.534;2022-09-14T09:34:30;7.68;;;1.73;;
65045;SDS011;54657;52.022;5.534;2022-09-14T09:36:58;5.00;;;1.80;;
65045;SDS011;54657;52.022;5.534;2022-09-14T09:39:25;3.55;;;1.80;;
65045;SDS011;54657;52.022;5.534;2022-09-14T09:41:57;3.92;;;1.42;;
65045;SDS011;54657;52.022;5.534;2022-09-14T09:44:27;5.05;;;1.75;;
65045;SDS011;54657;52.022;5.534;2022-09-14T09:46:57;6.07;;;1.70;;
65045;SDS011;54657;52.022;5.534;2022-09-14T09:51:53;8.50;;;1.73;;
65045;SDS011;54657;52.022;5.534;2022-09-14T09:54:24;5.55;;;1.63;;
65045;SDS011;54657;52.022;5.534;2022-09-14T09:56:58;6.03;;;1.50;;
65045;SDS011;54657;52.022;5.534;2022-09-14T09:59:33;4.95;;;1.50;;
65045;SDS011;54657;52.022;5.534;2022-09-14T10:10:22;3.20;;;1.10;;
65045;SDS011;54657;52.022;5.534;2022-09-14T10:13:17;2.92;;;0.90;;
65045;SDS011;54657;52.022;5.534;2022-09-14T10:16:13;4.88;;;1.10;;
65045;SDS011;54657;52.022;5.534;2022-09-14T10:18:44;2.30;;;0.90;;
65045;SDS011;54657;52.022;5.534;2022-09-14T10:21:12;2.67;;;0.90;;
65045;SDS011;54657;52.022;5.534;2022-09-14T10:23:40;3.58;;;0.88;;
65045;SDS011;54657;52.022;5.534;2022-09-14T10:26:16;3.78;;;0.60;;
65045;SDS011;54657;52.022;5.534;2022-09-14T10:28:44;3.75;;;0.82;;
65045;SDS011;54657;52.022;5.534;2022-09-14T10:33:40;2.35;;;0.75;;
65045;SDS011;54657;52.022;5.534;2022-09-14T10:38:50;4.38;;;1.17;;
65045;SDS011;54657;52.022;5.534;2022-09-14T10:44:04;3.35;;;1.08;;
65045;SDS011;54657;52.022;5.534;2022-09-14T10:55:06;4.18;;;1.05;;
65045;SDS011;54657;52.022;5.534;2022-09-14T11:00:33;5.72;;;1.00;;
65045;SDS011;54657;52.022;5.534;2022-09-14T11:05:56;4.28;;;1.60;;
65045;SDS011;54657;52.022;5.534;2022-09-14T11:08:39;4.18;;;1.30;;
65045;SDS011;54657;52.022;5.534;2022-09-14T11:11:36;2.92;;;1.10;;
65045;SDS011;54657;52.022;5.534;2022-09-14T11:16:59;4.13;;;1.30;;
65045;SDS011;54657;52.022;5.534;2022-09-14T11:28:04;4.57;;;1.10;;
65045;SDS011;54657;52.022;5.534;2022-09-14T11:30:40;4.75;;;1.42;;
65045;SDS011;54657;52.022;5.534;2022-09-14T11:33:17;2.58;;;1.10;;
65045;SDS011;54657;52.022;5.534;2022-09-14T11:36:00;3.90;;;1.30;;
65045;SDS011;54657;52.022;5.534;2022-09-14T11:38:30;3.65;;;1.35;;
65045;SDS011;54657;52.022;5.534;2022-09-14T11:41:02;2.78;;;1.08;;
65045;SDS011;54657;52.022;5.534;2022-09-14T11:44:02;4.13;;;1.23;;
65045;SDS011;54657;52.022;5.534;2022-09-14T11:49:13;3.60;;;1.13;;
65045;SDS011;54657;52.022;5.534;2022-09-14T11:51:50;1.88;;;1.10;;
65045;SDS011;54657;52.022;5.534;2022-09-14T11:54:23;5.00;;;1.10;;
65045;SDS011;54657;52.022;5.534;2022-09-14T11:56:49;4.07;;;1.20;;
65045;SDS011;54657;52.022;5.534;2022-09-14T12:00:06;3.45;;;1.05;;
65045;SDS011;54657;52.022;5.534;2022-09-14T12:12:42;2.50;;;1.08;;
65045;SDS011;54657;52.022;5.534;2022-09-14T12:17:56;3.53;;;1.00;;
65045;SDS011;54657;52.022;5.534;2022-09-14T12:23:23;6.43;;;1.20;;
65045;SDS011;54657;52.022;5.534;2022-09-14T12:25:56;3.22;;;1.63;;
65045;SDS011;54657;52.022;5.534;2022-09-14T12:36:01;6.70;;;1.50;;
65045;SDS011;54657;52.022;5.534;2022-09-14T12:54:06;5.28;;;1.52;;
65045;SDS011;54657;52.022;5.534;2022-09-14T12:56:41;5.65;;;1.73;;
65045;SDS011;54657;52.022;5.534;2022-09-14T12:59:47;4.00;;;1.80;;
65045;SDS011;54657;52.022;5.534;2022-09-14T13:07:49;4.22;;;1.45;;
65045;SDS011;54657;52.022;5.534;2022-09-14T13:10:19;3.47;;;1.13;;
65045;SDS011;54657;52.022;5.534;2022-09-14T13:12:50;6.55;;;1.30;;
65045;SDS011;54657;52.022;5.534;2022-09-14T13:15:23;5.65;;;1.13;;
65045;SDS011;54657;52.022;5.534;2022-09-14T13:18:00;5.40;;;1.45;;
65045;SDS011;54657;52.022;5.534;2022-09-14T13:20:29;3.33;;;1.00;;
65045;SDS011;54657;52.022;5.534;2022-09-14T13:22:57;4.28;;;1.30;;
65045;SDS011;54657;52.022;5.534;2022-09-14T13:28:02;2.80;;;0.90;;
65045;SDS011;54657;52.022;5.534;2022-09-14T13:30:31;1.30;;;1.00;;
65045;SDS011;54657;52.022;5.534;2022-09-14T13:32:58;2.65;;;1.00;;
65045;SDS011;54657;52.022;5.534;2022-09-14T13:35:28;5.40;;;1.10;;
65045;SDS011;54657;52.022;5.534;2022-09-14T13:37:57;5.25;;;1.27;;
65045;SDS011;54657;52.022;5.534;2022-09-14T13:40:25;3.13;;;1.15;;
65045;SDS011;54657;52.022;5.534;2022-09-14T13:42:54;2.42;;;1.08;;
65045;SDS011;54657;52.022;5.534;2022-09-14T13:45:21;7.53;;;1.55;;
65045;SDS011;54657;52.022;5.534;2022-09-14T13:47:47;4.13;;;1.05;;
65045;SDS011;54657;52.022;5.534;2022-09-14T13:50:13;5.13;;;1.40;;
65045;SDS011;54657;52.022;5.534;2022-09-14T13:52:40;4.32;;;1.40;;
65045;SDS011;54657;52.022;5.534;2022-09-14T14:00:28;3.22;;;1.55;;
65045;SDS011;54657;52.022;5.534;2022-09-14T14:03:02;4.63;;;1.30;;
65045;SDS011;54657;52.022;5.534;2022-09-14T14:05:32;2.67;;;1.10;;
65045;SDS011;54657;52.022;5.534;2022-09-14T14:08:03;2.63;;;1.30;;
65045;SDS011;54657;52.022;5.534;2022-09-14T14:10:55;2.28;;;0.80;;
65045;SDS011;54657;52.022;5.534;2022-09-14T14:13:25;4.13;;;1.35;;
65045;SDS011;54657;52.022;5.534;2022-09-14T14:15:52;3.22;;;1.20;;
65045;SDS011;54657;52.022;5.534;2022-09-14T14:18:37;5.68;;;1.15;;
65045;SDS011;54657;52.022;5.534;2022-09-14T14:23:46;2.83;;;1.02;;
65045;SDS011;54657;52.022;5.534;2022-09-14T14:26:13;4.38;;;1.52;;
65045;SDS011;54657;52.022;5.534;2022-09-14T14:28:41;3.58;;;1.20;;
65045;SDS011;54657;52.022;5.534;2022-09-14T14:31:11;2.95;;;1.15;;
65045;SDS011;54657;52.022;5.534;2022-09-14T14:34:14;3.75;;;1.40;;
65045;SDS011;54657;52.022;5.534;2022-09-14T14:36:35;3.40;;;1.20;;
65045;SDS011;54657;52.022;5.534;2022-09-14T14:39:00;2.92;;;1.40;;
65045;SDS011;54657;52.022;5.534;2022-09-14T14:41:26;4.60;;;1.50;;
65045;SDS011;54657;52.022;5.534;2022-09-14T14:43:51;3.13;;;1.65;;
65045;SDS011;54657;52.022;5.534;2022-09-14T14:46:17;6.57;;;1.40;;
65045;SDS011;54657;52.022;5.534;2022-09-14T14:48:43;3.67;;;1.27;;
65045;SDS011;54657;52.022;5.534;2022-09-14T14:51:11;5.93;;;1.40;;
65045;SDS011;54657;52.022;5.534;2022-09-14T14:53:38;4.07;;;1.38;;
65045;SDS011;54657;52.022;5.534;2022-09-14T14:56:04;2.15;;;1.48;;
65045;SDS011;54657;52.022;5.534;2022-09-14T14:58:29;4.60;;;1.63;;
65045;SDS011;54657;52.022;5.534;2022-09-14T15:00:55;6.70;;;1.30;;
65045;SDS011;54657;52.022;5.534;2022-09-14T15:03:21;4.75;;;1.40;;
65045;SDS011;54657;52.022;5.534;2022-09-14T15:05:47;5.53;;;1.50;;
65045;SDS011;54657;52.022;5.534;2022-09-14T15:08:14;2.88;;;1.35;;
65045;SDS011;54657;52.022;5.534;2022-09-14T15:10:41;3.65;;;1.42;;
65045;SDS011;54657;52.022;5.534;2022-09-14T15:13:08;6.60;;;1.48;;
65045;SDS011;54657;52.022;5.534;2022-09-14T15:15:34;6.75;;;1.50;;
65045;SDS011;54657;52.022;5.534;2022-09-14T15:18:00;6.53;;;1.70;;
65045;SDS011;54657;52.022;5.534;2022-09-14T15:20:25;2.30;;;1.40;;
65045;SDS011;54657;52.022;5.534;2022-09-14T15:22:51;3.90;;;1.40;;
65045;SDS011;54657;52.022;5.534;2022-09-14T15:25:17;7.22;;;1.73;;
65045;SDS011;54657;52.022;5.534;2022-09-14T15:27:43;3.80;;;1.42;;
65045;SDS011;54657;52.022;5.534;2022-09-14T15:30:09;2.72;;;1.30;;
65045;SDS011;54657;52.022;5.534;2022-09-14T15:32:36;4.28;;;1.58;;
65045;SDS011;54657;52.022;5.534;2022-09-14T15:35:03;6.07;;;1.65;;
65045;SDS011;54657;52.022;5.534;2022-09-14T15:37:29;2.63;;;1.55;;
65045;SDS011;54657;52.022;5.534;2022-09-14T15:39:55;8.48;;;1.60;;
65045;SDS011;54657;52.022;5.534;2022-09-14T15:42:20;5.82;;;1.48;;
65045;SDS011;54657;52.022;5.534;2022-09-14T15:44:46;4.68;;;1.27;;
65045;SDS011;54657;52.022;5.534;2022-09-14T15:47:12;3.42;;;1.00;;
65045;SDS011;54657;52.022;5.534;2022-09-14T15:49:39;2.38;;;0.90;;
65045;SDS011;54657;52.022;5.534;2022-09-14T15:52:06;3.35;;;1.42;;
65045;SDS011;54657;52.022;5.534;2022-09-14T15:54:33;2.58;;;1.10;;
65045;SDS011;54657;52.022;5.534;2022-09-14T15:57:01;5.05;;;1.40;;
65045;SDS011;54657;52.022;5.534;2022-09-14T15:59:28;2.35;;;1.20;;
65045;SDS011;54657;52.022;5.534;2022-09-14T16:01:53;4.55;;;1.30;;
65045;SDS011;54657;52.022;5.534;2022-09-14T16:04:19;2.95;;;1.20;;
65045;SDS011;54657;52.022;5.534;2022-09-14T16:06:45;3.88;;;1.10;;
65045;SDS011;54657;52.022;5.534;2022-09-14T16:09:12;6.38;;;1.60;;
65045;SDS011;54657;52.022;5.534;2022-09-14T16:11:39;5.03;;;1.67;;
65045;SDS011;54657;52.022;5.534;2022-09-14T16:14:06;4.78;;;1.40;;
65045;SDS011;54657;52.022;5.534;2022-09-14T16:16:33;6.57;;;1.95;;
65045;SDS011;54657;52.022;5.534;2022-09-14T16:19:03;4.20;;;1.30;;
65045;SDS011;54657;52.022;5.534;2022-09-14T16:21:30;4.75;;;1.40;;
65045;SDS011;54657;52.022;5.534;2022-09-14T16:23:59;4.43;;;1.23;;
65045;SDS011;54657;52.022;5.534;2022-09-14T16:26:28;4.78;;;1.20;;
65045;SDS011;54657;52.022;5.534;2022-09-14T16:28:56;5.70;;;1.30;;
65045;SDS011;54657;52.022;5.534;2022-09-14T16:31:26;2.92;;;1.20;;
65045;SDS011;54657;52.022;5.534;2022-09-14T16:33:56;5.93;;;1.73;;
65045;SDS011;54657;52.022;5.534;2022-09-14T16:36:24;2.30;;;1.13;;
65045;SDS011;54657;52.022;5.534;2022-09-14T16:38:56;4.47;;;1.33;;
65045;SDS011;54657;52.022;5.534;2022-09-14T16:41:24;3.13;;;1.20;;
65045;SDS011;54657;52.022;5.534;2022-09-14T16:43:58;4.78;;;1.30;;
65045;SDS011;54657;52.022;5.534;2022-09-14T16:46:25;4.22;;;1.25;;
65045;SDS011;54657;52.022;5.534;2022-09-14T16:48:52;6.22;;;1.35;;
65045;SDS011;54657;52.022;5.534;2022-09-14T16:51:19;6.15;;;1.00;;
65045;SDS011;54657;52.022;5.534;2022-09-14T16:53:49;4.25;;;1.20;;
65045;SDS011;54657;52.022;5.534;2022-09-14T16:56:34;9.73;;;1.25;;
65045;SDS011;54657;52.022;5.534;2022-09-14T16:59:01;3.17;;;0.95;;
65045;SDS011;54657;52.022;5.534;2022-09-14T17:01:29;4.57;;;1.10;;
65045;SDS011;54657;52.022;5.534;2022-09-14T17:03:57;2.58;;;1.02;;
65045;SDS011;54657;52.022;5.534;2022-09-14T17:06:26;2.60;;;0.80;;
65045;SDS011;54657;52.022;5.534;2022-09-14T17:08:55;3.83;;;1.00;;
65045;SDS011;54657;52.022;5.534;2022-09-14T17:11:24;3.50;;;1.17;;
65045;SDS011;54657;52.022;5.534;2022-09-14T17:13:50;3.10;;;1.00;;
65045;SDS011;54657;52.022;5.534;2022-09-14T17:16:17;3.28;;;1.00;;
65045;SDS011;54657;52.022;5.534;2022-09-14T17:18:45;2.47;;;0.90;;
65045;SDS011;54657;52.022;5.534;2022-09-14T17:21:14;3.33;;;1.02;;
65045;SDS011;54657;52.022;5.534;2022-09-14T17:23:44;2.73;;;1.10;;
65045;SDS011;54657;52.022;5.534;2022-09-14T17:26:11;5.53;;;1.50;;